ワルシャワ の空港の天気 - METARとTAF

ワルシャワ・フレデリック・ショパン空港 ( EPWA / WAW ) - ポーランド ワルシャワ
飛行場実況気象(Metar)
観測時間05/27 02:00 CEST (05/27 00:00 UTC)
風向・風速北西 3m/s
視程10km以上
天気現象
なし
気温10℃
湿度94%
気圧1030hPa
METAREPWA 270000Z 31006KT CAVOK 10/09 Q1030 NOSIG
過去の天気等 Google飛行場航空写真 Wunderground天気予報

過去48時間のMETAR

飛行場予報(TAF)
発表時間: 5/27 01:30 CEST (5/26 23:30 UTC)
予報対象時間: 27日2時 CEST ~ 28日2時 CEST
風向・風速北北西 5m/s
視程10km以上
なし
27日16時 CEST ~ 27日21時 CEST に一時的に
全天の4割程度の積乱雲 雲底高度 1220m
TAF EPWA 262330Z 2700/2724 33009KT CAVOK
TEMPO 2714/2719 SCT040CB